Uni Wealth — VRFV4 — position and weather

sailwx.info

Track history (hours):
 
Tides and Currents Weather Stations Pressure Air Temp Water Temp Dewpoint Dewpoint Depression Visibility Wind Speed Wind Dir Waves Ship Positions

Uni Wealth

Last reported at 2015-Apr-23 05:30 UTC. Time now 2015-May-03 13:52 UTC.
Position N 36°29' W 026°14'.
Warning: this ship's position is 10 days out of date.

Length 170 m; draft 10.1 m.

Type: Cargo ship. MMSI: 477621200.

Date/timePositionNaut miles runAvg speedWind from/ knotsBaromVisibWave heightAir tempDewpointWater temp
2015-Apr-23 05:30N 36°29' W 026°14'9 9.7
2015-Apr-23 04:33N 36°29' W 026°03'9 9.4
2015-Apr-23 03:33N 36°29' W 025°51'10 9.6
2015-Apr-23 02:34N 36°29' W 025°39'10 9.5
2015-Apr-23 01:33N 36°30' W 025°27'10 9.5
2015-Apr-23 00:33N 36°30' W 025°15'10 9.7
2015-Apr-22 23:34N 36°30' W 025°03'1010.0
2015-Apr-22 22:33N 36°30' W 024°51'1010.4
2015-Apr-22 21:33N 36°30' W 024°38'1110.7
2015-Apr-22 20:34N 36°29' W 024°25'1110.6
2015-Apr-22 19:33N 36°29' W 024°11'1110.8
2015-Apr-22 18:33N 36°28' W 023°58'1110.6
2015-Apr-22 17:34N 36°28' W 023°45'  
2015-Apr-19 13:29N 35°59' W 005°32'9 9.8
2015-Apr-19 12:33N 36°01' W 005°21'10 9.7
2015-Apr-19 11:33N 36°03' W 005°09'21112.4
2015-Apr-18 18:32N 36°31' W 000°49'1212.4
2015-Apr-18 17:33N 36°33' W 000°34'1412.6
2015-Apr-18 16:28N 36°35' W 000°17'1212.6
2015-Apr-18 15:33N 36°37' W 000°03'1212.2
2015-Apr-18 14:33N 36°39' E 000°12'1312.0
2015-Apr-18 13:30N 36°42' E 000°27'2811.7
2015-Apr-18 11:07N 36°47' E 001°01'712.5
2015-Apr-18 10:33N 36°49' E 001°10'2712.1
2015-Apr-18 08:18N 36°54' E 001°43'45712.0
2015-Apr-16 18:21N 37°26' E 011°15'912.0
2015-Apr-16 17:33N 37°22' E 011°25'1312.5
2015-Apr-16 16:33N 37°16' E 011°39'1312.9
2015-Apr-16 15:33N 37°10' E 011°54'1313.1
2015-Apr-16 14:33N 37°04' E 012°08'1312.8
2015-Apr-16 13:33N 36°58' E 012°23'1312.5
2015-Apr-16 12:33N 36°53' E 012°37'1312.8
2015-Apr-16 11:33N 36°48' E 012°52'1413.0
2015-Apr-16 10:31N 36°44' E 013°08'1212.6
2015-Apr-16 09:33N 36°40' E 013°22'1212.3
2015-Apr-16 08:33N 36°35' E 013°36'1212.4
2015-Apr-16 07:33N 36°31' E 013°51'1312.5
2015-Apr-16 06:33N 36°28' E 014°06'1312.4
2015-Apr-16 05:32N 36°28' E 014°22'1212.3
2015-Apr-16 04:33N 36°26' E 014°37'1212.3
2015-Apr-16 03:33N 36°25' E 014°52'1312.5
2015-Apr-16 02:31N 36°24' E 015°08'41011.7
2015-Apr-14 15:33N 36°32' E 023°37'1312.6
2015-Apr-14 14:33N 36°44' E 023°43'3912.7
2015-Apr-14 11:30N 37°19' E 024°01'1612.7
2015-Apr-14 10:13N 37°35' E 024°09'1212.7
2015-Apr-14 09:18N 37°46' E 024°13'2512.2
2015-Apr-14 07:16N 38°10' E 024°07'  
Track history (hours):
 
Tides and Currents Weather Stations Pressure Air Temp Water Temp Dewpoint Dewpoint Depression Visibility Wind Speed Wind Dir Waves Ship Positions

Uni Wealth

Last reported at 2015-Apr-23 05:30 UTC. Time now 2015-May-03 13:52 UTC.
Position N 36°29' W 026°14'.
Warning: this ship's position is 10 days out of date.

Length 170 m; draft 10.1 m.

Type: Cargo ship. MMSI: 477621200.

Date/timePositionNaut miles runAvg speedWind from/ knotsBaromVisibWave heightAir tempDewpointWater temp
2015-Apr-23 05:30N 36°29' W 026°14'9 9.7
2015-Apr-23 04:33N 36°29' W 026°03'9 9.4
2015-Apr-23 03:33N 36°29' W 025°51'10 9.6
2015-Apr-23 02:34N 36°29' W 025°39'10 9.5
2015-Apr-23 01:33N 36°30' W 025°27'10 9.5
2015-Apr-23 00:33N 36°30' W 025°15'10 9.7
2015-Apr-22 23:34N 36°30' W 025°03'1010.0
2015-Apr-22 22:33N 36°30' W 024°51'1010.4
2015-Apr-22 21:33N 36°30' W 024°38'1110.7
2015-Apr-22 20:34N 36°29' W 024°25'1110.6
2015-Apr-22 19:33N 36°29' W 024°11'1110.8
2015-Apr-22 18:33N 36°28' W 023°58'1110.6
2015-Apr-22 17:34N 36°28' W 023°45'  
2015-Apr-19 13:29N 35°59' W 005°32'9 9.8
2015-Apr-19 12:33N 36°01' W 005°21'10 9.7
2015-Apr-19 11:33N 36°03' W 005°09'21112.4
2015-Apr-18 18:32N 36°31' W 000°49'1212.4
2015-Apr-18 17:33N 36°33' W 000°34'1412.6
2015-Apr-18 16:28N 36°35' W 000°17'1212.6
2015-Apr-18 15:33N 36°37' W 000°03'1212.2
2015-Apr-18 14:33N 36°39' E 000°12'1312.0
2015-Apr-18 13:30N 36°42' E 000°27'2811.7
2015-Apr-18 11:07N 36°47' E 001°01'712.5
2015-Apr-18 10:33N 36°49' E 001°10'2712.1
2015-Apr-18 08:18N 36°54' E 001°43'45712.0
2015-Apr-16 18:21N 37°26' E 011°15'912.0
2015-Apr-16 17:33N 37°22' E 011°25'1312.5
2015-Apr-16 16:33N 37°16' E 011°39'1312.9
2015-Apr-16 15:33N 37°10' E 011°54'1313.1
2015-Apr-16 14:33N 37°04' E 012°08'1312.8
2015-Apr-16 13:33N 36°58' E 012°23'1312.5
2015-Apr-16 12:33N 36°53' E 012°37'1312.8
2015-Apr-16 11:33N 36°48' E 012°52'1413.0
2015-Apr-16 10:31N 36°44' E 013°08'1212.6
2015-Apr-16 09:33N 36°40' E 013°22'1212.3
2015-Apr-16 08:33N 36°35' E 013°36'1212.4
2015-Apr-16 07:33N 36°31' E 013°51'1312.5
2015-Apr-16 06:33N 36°28' E 014°06'1312.4
2015-Apr-16 05:32N 36°28' E 014°22'1212.3
2015-Apr-16 04:33N 36°26' E 014°37'1212.3
2015-Apr-16 03:33N 36°25' E 014°52'1312.5
2015-Apr-16 02:31N 36°24' E 015°08'41011.7
2015-Apr-14 15:33N 36°32' E 023°37'1312.6
2015-Apr-14 14:33N 36°44' E 023°43'3912.7
2015-Apr-14 11:30N 37°19' E 024°01'1612.7
2015-Apr-14 10:13N 37°35' E 024°09'1212.7
2015-Apr-14 09:18N 37°46' E 024°13'2512.2
2015-Apr-14 07:16N 38°10' E 024°07'  

Dump ship's entire track history